Time;durP1;ratioP1;P1;durP2;ratioP2;P2;SDS_P1;SDS_P2;PMS_P1;PMS_P2;Temp;Humidity;BMP_temperature;BMP_pressure;BME280_temperature;BME280_humidity;BME280_pressure;Samples;Min_cycle;Max_cycle;Signal;HPM_P1;HPM_P2
2022/10/30 00:01:38;;;;;;;19.13;7.20;;;;;;;13.74;100.00;100138.59;4956293;28;20477;-90
2022/10/30 00:04:05;;;;;;;18.15;7.35;;;;;;;13.72;100.00;100134.34;4960378;28;20055;-90
2022/10/30 00:06:31;;;;;;;17.38;7.53;;;;;;;13.68;100.00;100126.63;4949627;28;20476;-90
2022/10/30 00:08:58;;;;;;;17.63;6.50;;;;;;;13.84;100.00;100150.22;4950469;28;20054;-90
2022/10/30 00:11:25;;;;;;;23.33;7.47;;;;;;;13.78;100.00;100155.88;4955954;28;20378;-90
2022/10/30 00:13:51;;;;;;;22.08;7.40;;;;;;;13.68;100.00;100149.47;4955897;28;20051;-90
2022/10/30 00:16:18;;;;;;;17.27;8.30;;;;;;;13.62;100.00;100152.47;4955526;28;20051;-91
2022/10/30 00:18:45;;;;;;;17.40;6.60;;;;;;;13.65;100.00;100158.41;4954313;28;20497;-90
2022/10/30 00:21:14;;;;;;;19.55;7.13;;;;;;;13.60;100.00;100167.50;4964530;28;20050;-90
2022/10/30 00:23:46;;;;;;;24.38;8.20;;;;;;;13.51;100.00;100163.63;4955319;28;20058;-91
2022/10/30 00:26:13;;;;;;;20.02;6.65;;;;;;;13.47;100.00;100157.72;4957628;28;20453;-90
2022/10/30 00:28:40;;;;;;;15.52;5.78;;;;;;;13.49;100.00;100141.81;4954981;28;20058;-91
2022/10/30 00:31:07;;;;;;;15.48;6.18;;;;;;;13.44;100.00;100151.78;4956471;28;20051;-90
2022/10/30 00:33:34;;;;;;;20.35;6.35;;;;;;;13.43;100.00;100158.81;4974787;28;20129;-90
2022/10/30 00:36:01;;;;;;;15.45;6.22;;;;;;;13.43;100.00;100143.03;4942474;28;20074;-91
2022/10/30 00:38:28;;;;;;;19.77;7.03;;;;;;;13.33;100.00;100130.50;4956888;28;20062;-91
2022/10/30 00:40:54;;;;;;;14.70;5.68;;;;;;;13.33;100.00;100127.88;4955719;28;20601;-90
2022/10/30 00:43:32;;;;;;;12.90;5.40;;;;;;;13.57;100.00;100150.09;4950837;29;20062;-90
2022/10/30 00:46:12;;;;;;;18.38;6.50;;;;;;;13.34;100.00;100140.09;4948499;28;20066;-90
2022/10/30 00:48:41;;;;;;;15.32;5.25;;;;;;;13.45;100.00;100149.03;4957341;28;20054;-90
2022/10/30 00:51:10;;;;;;;14.73;5.22;;;;;;;13.29;100.00;100114.03;4955538;28;20053;-90
2022/10/30 00:53:37;;;;;;;14.40;5.75;;;;;;;13.22;100.00;100087.25;4960372;28;20047;-90
2022/10/30 00:56:07;;;;;;;13.07;5.70;;;;;;;13.42;100.00;100135.22;4955041;28;20058;-90
2022/10/30 00:58:59;;;;;;;18.63;6.10;;;;;;;13.18;100.00;100113.84;4957846;28;20106;-90
2022/10/30 01:01:33;;;;;;;20.40;5.07;;;;;;;13.25;100.00;100133.56;4951574;28;20051;-90
2022/10/30 01:04:04;;;;;;;17.48;5.38;;;;;;;13.10;100.00;100116.88;4967648;28;20055;-91
2022/10/30 01:06:34;;;;;;;16.63;4.88;;;;;;;13.10;100.00;100111.63;4954882;28;20400;-90
2022/10/30 01:09:02;;;;;;;20.50;5.07;;;;;;;13.04;100.00;100118.09;4953605;28;20066;-91
2022/10/30 01:11:29;;;;;;;16.70;4.90;;;;;;;13.09;100.00;100109.97;4954810;28;20054;-90
2022/10/30 01:14:01;;;;;;;14.88;5.85;;;;;;;13.04;100.00;100107.59;4955684;28;20086;-90
2022/10/30 01:16:50;;;;;;;13.55;4.60;;;;;;;13.06;100.00;100105.72;4956893;28;20050;-90
2022/10/30 01:19:32;;;;;;;12.32;4.63;;;;;;;13.01;100.00;100115.63;4956498;28;20058;-90
2022/10/30 01:22:05;;;;;;;19.00;4.80;;;;;;;13.00;100.00;100118.38;4950139;28;20054;-90
2022/10/30 01:25:10;;;;;;;12.38;4.53;;;;;;;12.93;100.00;100119.66;4955473;28;20210;-90
2022/10/30 01:27:52;;;;;;;15.15;4.63;;;;;;;13.06;100.00;100120.63;4954263;28;20138;-90
2022/10/30 01:30:28;;;;;;;17.95;5.00;;;;;;;12.93;100.00;100127.56;4950980;29;20441;-91
2022/10/30 01:33:10;;;;;;;14.88;4.40;;;;;;;13.03;100.00;100140.06;4950164;28;21753;-90
2022/10/30 01:35:46;;;;;;;18.60;4.72;;;;;;;12.89;100.00;100143.47;4960122;28;20102;-90
2022/10/30 01:38:22;;;;;;;10.93;4.03;;;;;;;13.00;100.00;100142.03;4960558;28;20108;-90
2022/10/30 01:40:49;;;;;;;13.77;4.30;;;;;;;12.87;100.00;100131.34;4984191;28;20050;-90
2022/10/30 01:43:16;;;;;;;13.10;3.97;;;;;;;12.89;100.00;100130.34;4961153;28;20409;-91
2022/10/30 01:45:42;;;;;;;16.25;5.25;;;;;;;12.91;100.00;100135.53;4958177;28;20047;-91
2022/10/30 01:48:21;;;;;;;12.15;3.47;;;;;;;12.91;100.00;100135.53;4961631;28;20050;-91
2022/10/30 01:51:07;;;;;;;15.10;3.83;;;;;;;12.85;100.00;100127.97;4957583;28;20051;-91
2022/10/30 01:54:15;;;;;;;16.90;4.13;;;;;;;12.79;100.00;100141.47;4944454;28;20042;-91
2022/10/30 01:57:00;;;;;;;12.00;3.42;;;;;;;12.85;100.00;100126.19;4948156;28;20102;-91
2022/10/30 01:59:42;;;;;;;12.85;3.50;;;;;;;12.75;100.00;100109.28;4957717;28;20051;-91
2022/10/30 02:02:09;;;;;;;24.77;3.88;;;;;;;12.62;100.00;100110.88;4957722;28;20050;-91
2022/10/30 02:04:37;;;;;;;13.63;4.07;;;;;;;12.63;100.00;100121.31;4958693;28;20097;-91
2022/10/30 02:07:04;;;;;;;12.13;3.50;;;;;;;12.72;100.00;100117.31;4955559;28;20509;-92
2022/10/30 02:09:31;;;;;;;15.85;3.72;;;;;;;12.54;100.00;100111.31;4968438;28;20114;-91
2022/10/30 02:11:59;;;;;;;12.73;3.35;;;;;;;12.60;100.00;100123.25;4958492;28;20125;-91
2022/10/30 02:14:41;;;;;;;13.25;3.50;;;;;;;12.63;100.00;100117.84;4972954;28;20481;-91
2022/10/30 02:17:10;;;;;;;22.45;3.80;;;;;;;12.50;100.00;100112.41;4951149;28;20042;-91
2022/10/30 02:19:37;;;;;;;16.27;3.55;;;;;;;12.59;100.00;100124.16;4973094;28;20055;-91
2022/10/30 02:22:04;;;;;;;15.95;3.35;;;;;;;12.46;100.00;100103.84;4976102;28;20059;-91
2022/10/30 02:24:31;;;;;;;20.35;4.32;;;;;;;12.44;100.00;100110.13;4973590;28;20118;-91
2022/10/30 02:26:58;;;;;;;16.60;3.55;;;;;;;12.49;100.00;100127.31;4958130;28;20050;-91
2022/10/30 02:29:24;;;;;;;20.40;3.42;;;;;;;12.57;100.00;100141.78;4957503;28;20167;-90
2022/10/30 02:31:51;;;;;;;21.40;3.90;;;;;;;12.61;100.00;100127.59;4991797;28;20386;-91
2022/10/30 02:34:19;;;;;;;18.35;3.33;;;;;;;12.66;100.00;100123.75;4949883;28;20081;-91
2022/10/30 02:36:46;;;;;;;19.10;3.72;;;;;;;12.53;100.00;100128.84;4957365;28;20042;-91
2022/10/30 02:39:12;;;;;;;13.48;2.42;;;;;;;12.59;100.00;100129.44;4956426;28;20077;-91
2022/10/30 02:41:39;;;;;;;15.20;3.78;;;;;;;12.47;100.00;100142.31;4958022;28;20047;-91
2022/10/30 02:44:06;;;;;;;11.48;3.05;;;;;;;12.56;100.00;100135.72;4967046;28;20089;-91
2022/10/30 02:46:33;;;;;;;13.60;3.33;;;;;;;12.50;100.00;100142.16;4962661;28;20046;-91
2022/10/30 02:49:00;;;;;;;11.40;2.47;;;;;;;12.64;100.00;100135.28;4956297;28;20047;-91
2022/10/30 02:51:27;;;;;;;13.20;2.38;;;;;;;12.27;100.00;100080.41;4956929;28;20460;-91
2022/10/30 02:53:54;;;;;;;14.50;3.20;;;;;;;12.05;100.00;100087.75;4974078;28;20074;-91
2022/10/30 02:56:20;;;;;;;12.82;2.88;;;;;;;12.28;100.00;100124.09;4945586;29;20106;-91
2022/10/30 02:58:47;;;;;;;17.27;3.40;;;;;;;12.32;100.00;100140.50;4954244;28;20062;-92
2022/10/30 03:01:17;;;;;;;11.32;2.55;;;;;;;12.27;100.00;100127.66;4957407;28;20521;-91
2022/10/30 03:03:45;;;;;;;13.27;2.55;;;;;;;12.17;100.00;100102.00;4955506;28;20497;-91
2022/10/30 03:06:14;;;;;;;10.68;2.47;;;;;;;12.37;100.00;100114.03;4974831;28;20428;-91
2022/10/30 03:08:42;;;;;;;13.90;3.05;;;;;;;12.37;100.00;100106.16;4959199;28;20049;-91
2022/10/30 03:11:12;;;;;;;14.00;2.72;;;;;;;12.47;100.00;100118.69;4956632;28;20061;-91
2022/10/30 03:13:39;;;;;;;10.50;2.22;;;;;;;12.30;100.00;100095.13;4943425;29;20055;-91
2022/10/30 03:16:11;;;;;;;9.00;2.13;;;;;;;12.45;100.00;100128.44;4958296;28;20050;-91
2022/10/30 03:18:39;;;;;;;10.85;2.42;;;;;;;12.30;100.00;100116.97;4955660;28;20106;-91
2022/10/30 03:21:08;;;;;;;10.93;2.60;;;;;;;12.17;100.00;100097.59;4955898;28;20051;-91
2022/10/30 03:23:34;;;;;;;9.60;2.13;;;;;;;12.21;100.00;100100.91;4955943;28;20489;-91
2022/10/30 03:26:02;;;;;;;12.98;2.92;;;;;;;12.31;100.00;100099.47;4957713;28;20043;-90
2022/10/30 03:28:30;;;;;;;13.40;2.33;;;;;;;12.21;100.00;100101.72;4961337;28;20058;-90
2022/10/30 03:31:10;;;;;;;14.88;3.15;;;;;;;12.58;100.00;100104.94;4956431;28;20057;-90
2022/10/30 03:33:37;;;;;;;15.32;2.78;;;;;;;12.82;100.00;100097.47;4954261;28;20055;-90
2022/10/30 03:36:05;;;;;;;16.60;2.85;;;;;;;13.02;100.00;100092.84;4951562;28;20098;-91
2022/10/30 03:38:32;;;;;;;12.55;3.35;;;;;;;12.89;100.00;100067.28;4974954;28;20053;-91
2022/10/30 03:40:59;;;;;;;16.33;2.95;;;;;;;13.07;100.00;100104.78;4955876;28;20661;-90
2022/10/30 03:43:26;;;;;;;8.00;2.25;;;;;;;13.08;100.00;100090.72;4956283;28;20567;-92
2022/10/30 03:45:54;;;;;;;8.50;2.45;;;;;;;12.88;100.00;100076.09;4943949;29;20051;-91
2022/10/30 03:48:23;;;;;;;10.15;2.72;;;;;;;13.12;100.00;100091.38;4951137;29;20454;-91
2022/10/30 03:50:55;;;;;;;10.73;2.72;;;;;;;13.05;100.00;100062.00;4954859;28;20109;-91
2022/10/30 03:53:24;;;;;;;11.10;2.15;;;;;;;13.21;100.00;100071.56;4958166;28;20122;-91
2022/10/30 03:55:56;;;;;;;10.30;2.35;;;;;;;13.28;100.00;100073.78;4965181;28;20043;-91
2022/10/30 03:58:22;;;;;;;13.55;2.50;;;;;;;13.05;100.00;100064.63;4942617;28;20058;-91
2022/10/30 04:00:49;;;;;;;14.43;2.60;;;;;;;13.32;100.00;100071.00;4958829;28;20066;-91
2022/10/30 04:03:16;;;;;;;16.58;3.53;;;;;;;12.93;100.00;100030.34;4951568;28;20046;-91
2022/10/30 04:05:43;;;;;;;17.42;2.65;;;;;;;13.33;100.00;100076.13;4956501;28;20485;-91
2022/10/30 04:08:13;;;;;;;10.82;1.90;;;;;;;13.39;100.00;100061.81;4947078;28;20055;-91
2022/10/30 04:10:44;;;;;;;13.70;2.78;;;;;;;13.33;100.00;100084.03;4972833;28;20429;-91
2022/10/30 04:13:13;;;;;;;15.35;2.67;;;;;;;13.23;100.00;100082.88;4951975;28;20545;-91
2022/10/30 04:15:40;;;;;;;11.85;2.10;;;;;;;13.34;100.00;100072.59;4955660;28;20058;-91
2022/10/30 04:18:10;;;;;;;14.80;2.72;;;;;;;13.37;100.00;100076.81;4937779;29;20494;-90
2022/10/30 04:20:37;;;;;;;13.50;3.38;;;;;;;13.35;100.00;100078.69;4950180;29;20079;-91
2022/10/30 04:23:06;;;;;;;11.15;2.17;;;;;;;13.41;100.00;100060.75;4956030;28;20063;-90
2022/10/30 04:25:34;;;;;;;22.42;3.50;;;;;;;13.23;100.00;100072.34;4970463;28;20149;-91
2022/10/30 04:28:01;;;;;;;15.02;2.72;;;;;;;13.45;100.00;100071.94;4956192;28;20046;-91
2022/10/30 04:30:32;;;;;;;17.63;3.53;;;;;;;13.17;100.00;100067.44;4953947;28;20049;-91
2022/10/30 04:33:00;;;;;;;13.57;3.10;;;;;;;13.38;100.00;100057.47;4962775;28;20054;-90
2022/10/30 04:35:30;;;;;;;17.70;3.95;;;;;;;13.29;100.00;100046.53;4959759;28;20053;-91
2022/10/30 04:38:02;;;;;;;17.10;3.20;;;;;;;13.45;100.00;100078.03;4972399;28;20050;-91
2022/10/30 04:40:32;;;;;;;19.25;2.78;;;;;;;13.39;100.00;100049.50;4958702;28;20114;-91
2022/10/30 04:42:59;;;;;;;14.40;2.72;;;;;;;13.16;100.00;100044.75;4957374;28;20405;-91
2022/10/30 04:45:26;;;;;;;18.75;4.35;;;;;;;13.39;100.00;100069.69;4948032;29;20489;-91
2022/10/30 04:48:04;;;;;;;12.57;2.65;;;;;;;13.32;100.00;100052.59;4951319;28;20051;-91
2022/10/30 04:50:32;;;;;;;17.63;3.45;;;;;;;13.52;100.00;100064.53;4977087;28;20077;-91
2022/10/30 04:53:00;;;;;;;12.65;2.65;;;;;;;13.58;100.00;100058.88;4955667;28;20485;-91
2022/10/30 04:55:28;;;;;;;19.00;2.95;;;;;;;13.46;100.00;100037.66;4955228;28;20106;-91
2022/10/30 04:57:57;;;;;;;17.15;4.47;;;;;;;13.22;100.00;100015.44;4965535;28;20413;-90
2022/10/30 05:00:25;;;;;;;29.85;4.22;;;;;;;13.43;100.00;100055.41;4954734;28;20548;-91
2022/10/30 05:02:52;;;;;;;14.98;2.47;;;;;;;13.42;100.00;100036.16;4944183;29;20102;-91
2022/10/30 05:05:20;;;;;;;20.10;3.75;;;;;;;13.23;100.00;100028.50;4953233;28;20051;-91
2022/10/30 05:07:46;;;;;;;15.65;3.13;;;;;;;13.42;100.00;100043.19;4972145;28;20059;-91
2022/10/30 05:10:14;;;;;;;15.93;2.95;;;;;;;13.31;100.00;100043.84;4955156;28;20460;-91
2022/10/30 05:12:42;;;;;;;9.40;2.33;;;;;;;13.13;100.00;100001.06;4958888;28;20110;-91
2022/10/30 05:15:09;;;;;;;16.80;3.88;;;;;;;13.20;100.00;100048.88;4958745;28;20055;-91
2022/10/30 05:17:36;;;;;;;17.20;3.33;;;;;;;13.42;100.00;100043.19;4968813;28;20489;-91
2022/10/30 05:20:04;;;;;;;9.43;2.55;;;;;;;13.30;100.00;100034.25;4977697;28;20113;-91
2022/10/30 05:22:32;;;;;;;14.13;2.40;;;;;;;13.27;100.00;100037.88;4959352;28;20481;-91
2022/10/30 05:24:58;;;;;;;11.43;2.78;;;;;;;13.16;100.00;100018.47;4958898;28;20055;-91
2022/10/30 05:27:25;;;;;;;15.65;3.38;;;;;;;13.29;100.00;100043.91;4941462;29;20051;-90
2022/10/30 05:29:52;;;;;;;13.25;2.95;;;;;;;13.36;100.00;100043.56;4950008;28;20055;-93
2022/10/30 05:32:18;;;;;;;16.40;2.92;;;;;;;13.13;100.00;100045.75;4961945;28;20054;-88
2022/10/30 05:34:45;;;;;;;14.02;2.15;;;;;;;13.50;100.00;100079.56;4953917;29;20106;-89
2022/10/30 05:37:12;;;;;;;15.75;2.97;;;;;;;13.58;100.00;100072.03;4948621;28;20055;-89
2022/10/30 05:39:38;;;;;;;21.42;3.78;;;;;;;13.47;100.00;100070.94;4956481;28;20102;-89
2022/10/30 05:42:05;;;;;;;21.10;3.97;;;;;;;13.26;100.00;100070.38;4958095;28;20078;-89
2022/10/30 05:44:38;;;;;;;13.13;3.88;;;;;;;13.31;100.00;100070.13;4974643;28;20046;-90
2022/10/30 05:47:24;;;;;;;14.85;2.92;;;;;;;13.34;100.00;100074.38;4960615;28;20078;-92
2022/10/30 05:49:51;;;;;;;14.60;3.10;;;;;;;13.35;100.00;100061.16;4957575;28;20079;-93
2022/10/30 05:52:18;;;;;;;27.85;5.28;;;;;;;13.22;100.00;100044.38;4959191;28;20051;-93
2022/10/30 05:54:44;;;;;;;13.52;2.92;;;;;;;13.46;100.00;100057.88;4945317;28;20461;-93
2022/10/30 05:57:11;;;;;;;9.55;2.35;;;;;;;13.28;100.00;100025.63;4959142;28;20057;-92
2022/10/30 05:59:38;;;;;;;11.70;2.53;;;;;;;13.54;100.00;100036.34;4958180;28;20496;-90
2022/10/30 06:02:04;;;;;;;12.15;2.28;;;;;;;13.74;100.00;100051.78;4975574;28;20105;-90
2022/10/30 06:04:31;;;;;;;17.27;2.60;;;;;;;13.79;100.00;100057.59;4958593;28;20401;-90
2022/10/30 06:06:58;;;;;;;15.13;2.80;;;;;;;13.86;100.00;100037.84;4958014;28;20118;-90
2022/10/30 06:09:25;;;;;;;9.73;1.83;;;;;;;14.05;100.00;100055.09;4958242;28;20110;-93
2022/10/30 06:11:52;;;;;;;13.32;2.47;;;;;;;13.85;100.00;100053.72;4959679;28;20058;-93
2022/10/30 06:14:19;;;;;;;14.40;2.63;;;;;;;13.92;100.00;100039.25;4959945;28;20512;-93
2022/10/30 06:16:47;;;;;;;14.65;2.65;;;;;;;13.63;100.00;100027.88;4957253;28;20071;-88
2022/10/30 06:19:14;;;;;;;19.95;2.95;;;;;;;13.81;100.00;100052.22;4968901;28;20047;-88
2022/10/30 06:21:44;;;;;;;13.55;2.47;;;;;;;13.68;100.00;100002.97;4966067;28;20058;-88
2022/10/30 06:24:11;;;;;;;18.58;3.90;;;;;;;13.63;100.00;100033.16;4957540;28;20055;-91
2022/10/30 06:26:38;;;;;;;15.50;3.33;;;;;;;13.69;100.00;100006.47;4956626;28;20053;-92
2022/10/30 06:29:05;;;;;;;17.98;2.88;;;;;;;13.98;100.00;100049.38;4948753;28;20389;-92
2022/10/30 06:31:32;;;;;;;18.83;4.13;;;;;;;13.61;100.00;100032.41;4962039;28;20055;-89
2022/10/30 06:33:58;;;;;;;21.40;4.05;;;;;;;13.77;100.00;100014.72;4954632;28;20059;-89
2022/10/30 06:36:25;;;;;;;15.52;3.20;;;;;;;13.70;100.00;100009.94;4969853;28;20055;-89
2022/10/30 06:38:52;;;;;;;17.20;3.65;;;;;;;13.93;100.00;100026.94;4971360;28;20900;-91
2022/10/30 06:41:18;;;;;;;25.52;4.95;;;;;;;13.73;100.00;100042.16;4957060;28;20062;-92
2022/10/30 06:43:47;;;;;;;18.02;4.72;;;;;;;13.81;100.00;100032.03;4949107;28;20110;-90
2022/10/30 06:46:14;;;;;;;16.67;2.75;;;;;;;14.05;100.00;100055.09;4955117;28;20060;-90
2022/10/30 06:48:41;;;;;;;16.27;3.10;;;;;;;14.02;100.00;100042.13;4967133;28;20497;-90
2022/10/30 06:51:07;;;;;;;16.55;3.63;;;;;;;13.80;100.00;100016.34;4972016;28;20125;-90
2022/10/30 06:53:34;;;;;;;13.98;3.38;;;;;;;13.85;100.00;100036.16;4973662;28;20412;-91
2022/10/30 06:56:02;;;;;;;18.73;2.67;;;;;;;13.86;100.00;100024.69;4954454;28;20078;-91
2022/10/30 06:58:29;;;;;;;21.38;3.55;;;;;;;13.80;100.00;100027.69;4960060;28;20058;-91
2022/10/30 07:00:59;;;;;;;14.85;3.63;;;;;;;14.18;100.00;100057.81;4970482;28;20579;-91
2022/10/30 07:03:26;;;;;;;15.15;3.30;;;;;;;14.04;100.00;100016.56;4960559;28;20085;-91
2022/10/30 07:05:53;;;;;;;24.85;3.92;;;;;;;13.80;100.00;100035.59;4956911;28;20050;-91
2022/10/30 07:08:20;;;;;;;18.50;3.17;;;;;;;13.95;100.00;100011.88;4957459;28;20054;-91
2022/10/30 07:10:47;;;;;;;21.60;4.13;;;;;;;13.90;100.00;100027.97;4964544;28;20062;-91
2022/10/30 07:13:13;;;;;;;20.92;4.13;;;;;;;14.16;100.00;100023.66;4974272;28;20062;-90
2022/10/30 07:15:40;;;;;;;15.52;2.63;;;;;;;14.39;100.00;100038.00;4957484;28;20125;-91
2022/10/30 07:18:09;;;;;;;18.80;3.00;;;;;;;14.34;100.00;100028.69;4971833;28;20047;-91
2022/10/30 07:20:36;;;;;;;10.93;2.20;;;;;;;14.24;100.00;100031.94;4967682;28;20202;-91
2022/10/30 07:23:09;;;;;;;21.23;3.25;;;;;;;14.38;100.00;100048.66;4975861;28;20051;-91
2022/10/30 07:25:42;;;;;;;11.95;3.00;;;;;;;14.16;100.00;100028.09;4955289;28;20140;-91
2022/10/30 07:28:09;;;;;;;19.63;4.10;;;;;;;14.12;100.00;100022.19;4969516;28;20051;-91
2022/10/30 07:30:37;;;;;;;17.75;3.63;;;;;;;14.24;100.00;100026.66;4986487;28;20454;-91
2022/10/30 07:33:06;;;;;;;18.23;3.08;;;;;;;14.51;100.00;100056.59;4995563;28;20050;-91
2022/10/30 07:35:35;;;;;;;16.42;3.53;;;;;;;14.05;100.00;99995.41;4984452;28;20148;-91
2022/10/30 07:38:16;;;;;;;14.88;2.65;;;;;;;14.59;100.00;100046.44;4972905;28;20082;-91
2022/10/30 07:40:52;;;;;;;14.27;3.03;;;;;;;14.51;100.00;100046.06;4973514;28;20054;-89
2022/10/30 07:43:32;;;;;;;14.77;3.15;;;;;;;14.44;100.00;100021.91;4977269;28;20051;-92
2022/10/30 07:46:13;;;;;;;16.02;4.15;;;;;;;14.44;100.00;100048.25;4969335;28;20050;-89
2022/10/30 07:48:40;;;;;;;17.58;3.80;;;;;;;14.55;100.00;100029.09;4975202;28;20047;-93
2022/10/30 07:51:21;;;;;;;15.10;3.75;;;;;;;14.80;100.00;100063.47;4974638;28;20057;-92
2022/10/30 07:53:48;;;;;;;14.38;2.60;;;;;;;14.77;100.00;100060.19;4955939;28;20109;-89
2022/10/30 07:56:14;;;;;;;15.00;3.85;;;;;;;14.72;100.00;100046.47;4983587;28;20057;-89
2022/10/30 07:58:42;;;;;;;16.52;2.88;;;;;;;14.66;100.00;100025.78;4978173;28;20043;-90
2022/10/30 08:01:11;;;;;;;15.00;2.92;;;;;;;14.56;100.00;100022.91;4963839;28;20465;-90
2022/10/30 08:03:38;;;;;;;16.25;2.53;;;;;;;14.60;100.00;100038.41;4943755;28;20123;-91
2022/10/30 08:06:05;;;;;;;14.38;2.65;;;;;;;14.30;100.00;100043.84;4956626;28;20054;-90
2022/10/30 08:08:31;;;;;;;8.93;2.50;;;;;;;14.65;100.00;100055.75;4954285;28;20051;-90
2022/10/30 08:10:58;;;;;;;25.40;3.70;;;;;;;14.17;100.00;100021.91;4964753;28;20047;-90
2022/10/30 08:13:25;;;;;;;13.95;3.10;;;;;;;14.72;100.00;100038.56;4948727;28;20042;-90
2022/10/30 08:15:52;;;;;;;10.82;2.70;;;;;;;13.74;100.00;100061.44;4944329;28;20062;-90
2022/10/30 08:18:18;;;;;;;14.23;2.40;;;;;;;12.81;100.00;100069.50;4973865;28;20049;-89
2022/10/30 08:20:49;;;;;;;11.98;2.70;;;;;;;12.56;100.00;100056.94;4955965;28;20057;-90
2022/10/30 08:23:18;;;;;;;13.70;3.60;;;;;;;12.57;100.00;100076.16;4962818;28;20050;-89
2022/10/30 08:25:45;;;;;;;13.70;2.75;;;;;;;12.35;100.00;100044.06;4986502;28;20058;-89
2022/10/30 08:28:13;;;;;;;21.17;4.25;;;;;;;12.61;100.00;100083.78;4982330;28;20039;-89
2022/10/30 08:30:40;;;;;;;12.82;3.20;;;;;;;12.54;100.00;100072.78;4959888;28;20084;-90
2022/10/30 08:33:12;;;;;;;15.90;2.72;;;;;;;12.28;100.00;100013.00;4967968;28;20500;-89
2022/10/30 08:35:46;;;;;;;13.15;3.17;;;;;;;12.65;100.00;100081.81;4963946;28;20055;-90
2022/10/30 08:38:13;;;;;;;13.63;2.63;;;;;;;12.51;100.00;100030.09;4956374;28;20386;-89
2022/10/30 08:40:40;;;;;;;13.73;3.53;;;;;;;12.79;100.00;100076.63;4972475;28;20421;-90
2022/10/30 08:43:07;;;;;;;21.10;3.80;;;;;;;12.45;100.00;100056.69;4955731;28;20517;-89
2022/10/30 08:45:34;;;;;;;12.98;2.60;;;;;;;12.78;100.00;100071.47;4973517;28;20055;-90
2022/10/30 08:48:03;;;;;;;12.52;3.53;;;;;;;12.80;100.00;100077.47;4977132;28;20058;-90
2022/10/30 08:50:31;;;;;;;17.10;3.35;;;;;;;12.65;100.00;100077.41;4974877;28;20066;-90
2022/10/30 08:53:06;;;;;;;16.75;2.55;;;;;;;12.65;100.00;100066.91;4960085;28;20063;-89
2022/10/30 08:55:34;;;;;;;13.13;2.63;;;;;;;12.62;100.00;100048.69;4959594;28;20051;-89
2022/10/30 08:58:01;;;;;;;18.98;4.57;;;;;;;12.50;100.00;100047.63;4975507;28;20054;-90
2022/10/30 09:00:28;;;;;;;17.55;3.08;;;;;;;12.59;100.00;100055.91;4954622;28;20110;-91
2022/10/30 09:02:55;;;;;;;15.18;3.63;;;;;;;12.60;100.00;100065.47;4958861;28;20046;-90
2022/10/30 09:05:22;;;;;;;21.33;3.88;;;;;;;12.35;100.00;100038.81;4958885;28;20054;-91
2022/10/30 09:07:55;;;;;;;13.30;3.00;;;;;;;12.61;100.00;100068.03;4973775;28;20465;-92
2022/10/30 09:10:22;;;;;;;17.30;2.72;;;;;;;12.60;100.00;100057.59;4957322;28;20082;-91
2022/10/30 09:12:57;;;;;;;26.02;4.18;;;;;;;12.44;100.00;100047.94;4958466;28;20051;-89
2022/10/30 09:15:25;;;;;;;19.75;3.83;;;;;;;12.53;100.00;100059.72;4958282;28;20051;-91
2022/10/30 09:17:56;;;;;;;18.60;3.17;;;;;;;12.54;100.00;100022.03;4975570;28;20058;-90
2022/10/30 09:20:24;;;;;;;21.63;5.05;;;;;;;12.58;100.00;100043.72;4958876;28;20121;-91
2022/10/30 09:22:51;;;;;;;16.70;3.20;;;;;;;12.67;100.00;100024.78;4958095;28;20054;-89
2022/10/30 09:25:18;;;;;;;18.83;4.65;;;;;;;12.73;100.00;100048.09;4957213;28;20051;-90
2022/10/30 09:27:45;;;;;;;21.40;4.72;;;;;;;12.70;100.00;100020.22;4973965;28;20051;-90
2022/10/30 09:30:13;;;;;;;30.48;4.63;;;;;;;12.73;100.00;100027.94;4962787;28;20457;-88
2022/10/30 09:32:40;;;;;;;20.98;3.70;;;;;;;12.87;100.00;100021.00;4960825;28;20038;-90
2022/10/30 09:35:07;;;;;;;19.67;4.00;;;;;;;12.82;100.00;100016.03;4959343;28;20587;-90
2022/10/30 09:37:35;;;;;;;20.45;3.72;;;;;;;12.94;100.00;100024.97;4975662;28;20105;-90
2022/10/30 09:40:04;;;;;;;24.38;4.60;;;;;;;12.80;100.00;100012.66;4956389;28;20055;-91
2022/10/30 09:42:48;;;;;;;21.27;4.10;;;;;;;13.06;100.00;100021.63;4959620;28;20474;-91
2022/10/30 09:45:36;;;;;;;18.85;4.18;;;;;;;12.97;100.00;100030.03;4957087;28;20066;-90
2022/10/30 09:48:10;;;;;;;24.83;4.47;;;;;;;12.89;100.00;99996.34;4958183;28;20126;-91
2022/10/30 09:50:45;;;;;;;17.55;3.70;;;;;;;13.07;100.00;99997.03;4957625;28;20050;-92
2022/10/30 09:53:37;;;;;;;19.63;4.28;;;;;;;13.21;100.00;100006.72;4974457;28;20062;-91
2022/10/30 09:56:18;;;;;;;18.17;4.38;;;;;;;13.19;100.00;99995.47;4958178;28;20549;-91
2022/10/30 09:59:04;;;;;;;20.85;4.25;;;;;;;13.19;100.00;99987.56;4968922;28;20043;-90
2022/10/30 10:01:46;;;;;;;17.80;3.88;;;;;;;13.39;100.00;100006.59;4955325;28;20084;-90
2022/10/30 10:04:37;;;;;;;20.83;4.15;;;;;;;13.34;100.00;100008.66;4956479;28;20078;-92
2022/10/30 10:07:15;;;;;;;25.35;4.95;;;;;;;13.01;100.00;99976.38;4953887;28;20063;-91
2022/10/30 10:09:43;;;;;;;17.75;4.00;;;;;;;13.20;100.00;99976.09;4953325;28;20050;-91
2022/10/30 10:12:21;;;;;;;20.42;4.78;;;;;;;13.28;100.00;99992.28;4956515;28;20561;-91
2022/10/30 10:14:48;;;;;;;22.00;4.43;;;;;;;13.53;100.00;99998.69;4956170;28;20051;-92
2022/10/30 10:17:38;;;;;;;21.63;4.55;;;;;;;13.42;100.00;100020.41;4956625;28;20113;-92
2022/10/30 10:20:15;;;;;;;20.00;4.13;;;;;;;13.72;100.00;100014.16;4969346;28;20105;-92
2022/10/30 10:22:49;;;;;;;25.50;4.15;;;;;;;13.48;100.00;100009.47;4979125;28;20559;-91
2022/10/30 10:25:19;;;;;;;29.92;4.70;;;;;;;13.63;100.00;100022.63;4961739;28;20050;-92
2022/10/30 10:27:45;;;;;;;14.80;3.95;;;;;;;13.68;100.00;100021.41;4957201;28;20046;-92
2022/10/30 10:30:19;;;;;;;20.10;4.18;;;;;;;13.68;100.00;100026.66;4955899;28;20394;-91
2022/10/30 10:33:05;;;;;;;18.98;3.92;;;;;;;13.72;100.00;100018.59;4947847;28;20753;-90
2022/10/30 10:35:42;;;;;;;15.60;3.30;;;;;;;13.77;100.00;100019.97;4957272;28;20046;-92
2022/10/30 10:38:31;;;;;;;16.23;4.15;;;;;;;13.82;100.00;100019.72;4954646;28;20059;-92
2022/10/30 10:41:25;;;;;;;22.30;4.43;;;;;;;13.83;100.00;100027.50;4975941;28;20106;-92
2022/10/30 10:44:04;;;;;;;23.85;4.45;;;;;;;13.89;100.00;100015.75;4957606;28;20051;-92
2022/10/30 10:46:46;;;;;;;15.43;3.28;;;;;;;13.84;100.00;100020.44;4959650;28;20051;-92
2022/10/30 10:49:44;;;;;;;14.32;2.58;;;;;;;13.87;100.00;99993.97;4955915;28;20113;-93
2022/10/30 10:52:20;;;;;;;18.70;4.05;;;;;;;13.99;100.00;100014.22;4947877;28;20061;-92
2022/10/30 10:54:50;;;;;;;27.95;4.97;;;;;;;14.03;100.00;100034.16;4957691;28;20448;-92
2022/10/30 10:57:27;;;;;;;14.60;3.10;;;;;;;13.92;100.00;100022.63;4957585;28;20058;-93
2022/10/30 11:00:05;;;;;;;16.02;3.35;;;;;;;14.09;100.00;100029.44;4974278;28;20050;-84
2022/10/30 11:02:47;;;;;;;15.35;3.45;;;;;;;14.10;100.00;100036.41;4957239;28;20054;-92
2022/10/30 11:05:27;;;;;;;22.45;5.60;;;;;;;13.58;100.00;99974.72;4957218;28;20748;-93
2022/10/30 11:08:00;;;;;;;21.48;4.18;;;;;;;13.96;100.00;100019.69;4947950;28;20077;-93
2022/10/30 11:10:27;;;;;;;24.52;4.93;;;;;;;13.76;100.00;100018.31;4972934;28;20137;-93
2022/10/30 11:12:54;;;;;;;16.77;4.15;;;;;;;13.97;100.00;100016.13;4964605;28;20050;-93
2022/10/30 11:15:28;;;;;;;26.23;4.95;;;;;;;13.96;100.00;100014.41;4975512;28;20051;-93
2022/10/30 11:18:01;;;;;;;25.73;5.35;;;;;;;14.14;100.00;100008.94;4968721;28;20054;-93
2022/10/30 11:20:50;;;;;;;14.18;3.30;;;;;;;14.33;100.00;100019.97;4958174;28;20050;-94
2022/10/30 11:23:37;;;;;;;22.77;4.60;;;;;;;14.21;100.00;100013.69;4956485;28;20598;-90
2022/10/30 11:26:22;;;;;;;20.25;4.80;;;;;;;14.35;100.00;99998.81;4979308;28;20515;-90